sensor_id;sensor_type;location;lat;lon;timestamp;temperature;humidity
5786;DHT22;2919;48.630;9.000;2023-05-10T00:00:20;12.40;99.90
5786;DHT22;2919;48.630;9.000;2023-05-10T00:02:48;12.40;99.90
5786;DHT22;2919;48.630;9.000;2023-05-10T00:05:13;12.40;99.90
5786;DHT22;2919;48.630;9.000;2023-05-10T00:07:39;12.50;99.90
5786;DHT22;2919;48.630;9.000;2023-05-10T00:10:05;12.50;99.90
5786;DHT22;2919;48.630;9.000;2023-05-10T00:12:30;12.50;99.90
5786;DHT22;2919;48.630;9.000;2023-05-10T00:14:56;12.40;99.90
5786;DHT22;2919;48.630;9.000;2023-05-10T00:17:22;12.40;99.90
5786;DHT22;2919;48.630;9.000;2023-05-10T00:19:47;12.40;99.90
5786;DHT22;2919;48.630;9.000;2023-05-10T00:22:13;12.30;99.90
5786;DHT22;2919;48.630;9.000;2023-05-10T00:24:39;12.30;99.90
5786;DHT22;2919;48.630;9.000;2023-05-10T00:27:05;12.20;99.90
5786;DHT22;2919;48.630;9.000;2023-05-10T00:29:30;12.20;99.90
5786;DHT22;2919;48.630;9.000;2023-05-10T00:31:57;12.10;99.90
5786;DHT22;2919;48.630;9.000;2023-05-10T00:34:22;12.10;99.90
5786;DHT22;2919;48.630;9.000;2023-05-10T00:36:48;12.10;99.90
5786;DHT22;2919;48.630;9.000;2023-05-10T00:39:13;12.10;99.90
5786;DHT22;2919;48.630;9.000;2023-05-10T00:41:39;12.10;99.90
5786;DHT22;2919;48.630;9.000;2023-05-10T00:44:05;12.10;99.90
5786;DHT22;2919;48.630;9.000;2023-05-10T00:46:31;12.10;99.90
5786;DHT22;2919;48.630;9.000;2023-05-10T00:48:57;12.10;99.90
5786;DHT22;2919;48.630;9.000;2023-05-10T00:51:23;12.10;99.90
5786;DHT22;2919;48.630;9.000;2023-05-10T00:53:48;12.00;99.90
5786;DHT22;2919;48.630;9.000;2023-05-10T00:56:15;12.00;99.90
5786;DHT22;2919;48.630;9.000;2023-05-10T00:58:41;12.10;99.90
5786;DHT22;2919;48.630;9.000;2023-05-10T01:01:08;12.00;99.90
5786;DHT22;2919;48.630;9.000;2023-05-10T01:03:35;12.00;99.90
5786;DHT22;2919;48.630;9.000;2023-05-10T01:06:01;12.00;99.90
5786;DHT22;2919;48.630;9.000;2023-05-10T01:08:27;12.00;99.90
5786;DHT22;2919;48.630;9.000;2023-05-10T01:10:53;12.00;99.90
5786;DHT22;2919;48.630;9.000;2023-05-10T01:13:38;12.00;99.90
5786;DHT22;2919;48.630;9.000;2023-05-10T01:16:05;12.00;99.90
5786;DHT22;2919;48.630;9.000;2023-05-10T01:18:35;11.90;99.90
5786;DHT22;2919;48.630;9.000;2023-05-10T01:21:23;12.00;99.90
5786;DHT22;2919;48.630;9.000;2023-05-10T01:36:13;11.90;99.90
5786;DHT22;2919;48.630;9.000;2023-05-10T01:41:39;11.80;99.90
5786;DHT22;2919;48.630;9.000;2023-05-10T01:44:10;11.80;99.90
5786;DHT22;2919;48.630;9.000;2023-05-10T01:46:38;11.80;99.90
5786;DHT22;2919;48.630;9.000;2023-05-10T01:49:18;11.80;99.90
5786;DHT22;2919;48.630;9.000;2023-05-10T01:51:49;11.80;99.90
5786;DHT22;2919;48.630;9.000;2023-05-10T01:54:19;11.80;99.90
5786;DHT22;2919;48.630;9.000;2023-05-10T01:56:48;11.80;99.90
5786;DHT22;2919;48.630;9.000;2023-05-10T01:59:17;11.80;99.90
5786;DHT22;2919;48.630;9.000;2023-05-10T02:01:45;11.70;99.90
5786;DHT22;2919;48.630;9.000;2023-05-10T02:04:15;11.70;99.90
5786;DHT22;2919;48.630;9.000;2023-05-10T02:06:42;11.70;99.90
5786;DHT22;2919;48.630;9.000;2023-05-10T02:09:10;11.70;99.90
5786;DHT22;2919;48.630;9.000;2023-05-10T02:11:38;11.70;99.90
5786;DHT22;2919;48.630;9.000;2023-05-10T02:14:07;11.70;99.90
5786;DHT22;2919;48.630;9.000;2023-05-10T02:16:35;11.70;99.90
5786;DHT22;2919;48.630;9.000;2023-05-10T02:19:03;11.70;99.90
5786;DHT22;2919;48.630;9.000;2023-05-10T02:21:30;11.60;99.90
5786;DHT22;2919;48.630;9.000;2023-05-10T02:23:57;11.60;99.90
5786;DHT22;2919;48.630;9.000;2023-05-10T02:26:24;11.60;99.90
5786;DHT22;2919;48.630;9.000;2023-05-10T02:28:51;11.60;99.90
5786;DHT22;2919;48.630;9.000;2023-05-10T02:31:18;11.50;99.90
5786;DHT22;2919;48.630;9.000;2023-05-10T02:33:46;11.50;99.90
5786;DHT22;2919;48.630;9.000;2023-05-10T02:36:12;11.40;99.90
5786;DHT22;2919;48.630;9.000;2023-05-10T02:38:39;11.40;99.90
5786;DHT22;2919;48.630;9.000;2023-05-10T02:41:05;11.50;99.90
5786;DHT22;2919;48.630;9.000;2023-05-10T02:43:33;11.40;99.90
5786;DHT22;2919;48.630;9.000;2023-05-10T02:46:00;11.40;99.90
5786;DHT22;2919;48.630;9.000;2023-05-10T02:48:26;11.40;99.90
5786;DHT22;2919;48.630;9.000;2023-05-10T02:50:55;11.40;99.90
5786;DHT22;2919;48.630;9.000;2023-05-10T02:53:23;11.30;99.90
5786;DHT22;2919;48.630;9.000;2023-05-10T02:55:58;11.30;99.90
5786;DHT22;2919;48.630;9.000;2023-05-10T02:58:25;11.40;99.90
5786;DHT22;2919;48.630;9.000;2023-05-10T03:00:50;11.30;99.90
5786;DHT22;2919;48.630;9.000;2023-05-10T03:03:16;11.30;99.90
5786;DHT22;2919;48.630;9.000;2023-05-10T03:05:41;11.30;99.90
5786;DHT22;2919;48.630;9.000;2023-05-10T03:08:07;11.30;99.90
5786;DHT22;2919;48.630;9.000;2023-05-10T03:10:38;11.30;99.90
5786;DHT22;2919;48.630;9.000;2023-05-10T03:13:16;11.30;99.90
5786;DHT22;2919;48.630;9.000;2023-05-10T03:18:33;11.30;99.90
5786;DHT22;2919;48.630;9.000;2023-05-10T03:21:03;11.30;99.90
5786;DHT22;2919;48.630;9.000;2023-05-10T03:26:07;11.30;99.90
5786;DHT22;2919;48.630;9.000;2023-05-10T03:28:34;11.30;99.90
5786;DHT22;2919;48.630;9.000;2023-05-10T03:31:02;11.20;99.90
5786;DHT22;2919;48.630;9.000;2023-05-10T03:33:29;11.10;99.90
5786;DHT22;2919;48.630;9.000;2023-05-10T03:35:54;11.20;99.90
5786;DHT22;2919;48.630;9.000;2023-05-10T03:38:20;11.10;99.90
5786;DHT22;2919;48.630;9.000;2023-05-10T03:40:45;11.20;99.90
5786;DHT22;2919;48.630;9.000;2023-05-10T03:43:11;11.20;99.90
5786;DHT22;2919;48.630;9.000;2023-05-10T03:45:36;11.20;99.90
5786;DHT22;2919;48.630;9.000;2023-05-10T03:48:02;11.10;99.90
5786;DHT22;2919;48.630;9.000;2023-05-10T03:50:28;11.20;99.90
5786;DHT22;2919;48.630;9.000;2023-05-10T03:52:54;11.20;99.90
5786;DHT22;2919;48.630;9.000;2023-05-10T03:55:19;11.20;99.90
5786;DHT22;2919;48.630;9.000;2023-05-10T03:57:45;11.10;99.90
5786;DHT22;2919;48.630;9.000;2023-05-10T04:00:11;11.20;99.90
5786;DHT22;2919;48.630;9.000;2023-05-10T04:02:37;11.10;99.90
5786;DHT22;2919;48.630;9.000;2023-05-10T04:05:02;11.10;99.90
5786;DHT22;2919;48.630;9.000;2023-05-10T04:07:28;11.10;99.90
5786;DHT22;2919;48.630;9.000;2023-05-10T04:09:54;11.10;99.90
5786;DHT22;2919;48.630;9.000;2023-05-10T04:12:20;11.10;99.90
5786;DHT22;2919;48.630;9.000;2023-05-10T04:14:45;11.10;99.90
5786;DHT22;2919;48.630;9.000;2023-05-10T04:17:11;11.10;99.90
5786;DHT22;2919;48.630;9.000;2023-05-10T04:19:36;11.20;99.90
5786;DHT22;2919;48.630;9.000;2023-05-10T04:22:02;11.20;99.90
5786;DHT22;2919;48.630;9.000;2023-05-10T04:24:28;11.20;99.90
5786;DHT22;2919;48.630;9.000;2023-05-10T04:26:54;11.20;99.90
5786;DHT22;2919;48.630;9.000;2023-05-10T04:29:20;11.20;99.90
5786;DHT22;2919;48.630;9.000;2023-05-10T04:31:46;11.20;99.90
5786;DHT22;2919;48.630;9.000;2023-05-10T04:34:11;11.20;99.90
5786;DHT22;2919;48.630;9.000;2023-05-10T04:36:37;11.20;99.90
5786;DHT22;2919;48.630;9.000;2023-05-10T04:39:04;11.20;99.90
5786;DHT22;2919;48.630;9.000;2023-05-10T04:41:30;11.30;99.90
5786;DHT22;2919;48.630;9.000;2023-05-10T04:43:55;11.30;99.90
5786;DHT22;2919;48.630;9.000;2023-05-10T04:46:21;11.20;99.90
5786;DHT22;2919;48.630;9.000;2023-05-10T04:48:47;11.20;99.90
5786;DHT22;2919;48.630;9.000;2023-05-10T04:51:12;11.20;99.90
5786;DHT22;2919;48.630;9.000;2023-05-10T04:53:38;11.20;99.90
5786;DHT22;2919;48.630;9.000;2023-05-10T04:56:04;11.20;99.90
5786;DHT22;2919;48.630;9.000;2023-05-10T04:58:30;11.30;99.90
5786;DHT22;2919;48.630;9.000;2023-05-10T05:00:55;11.30;99.90
5786;DHT22;2919;48.630;9.000;2023-05-10T05:03:21;11.30;99.90
5786;DHT22;2919;48.630;9.000;2023-05-10T05:05:47;11.30;99.90
5786;DHT22;2919;48.630;9.000;2023-05-10T05:08:13;11.30;99.90
5786;DHT22;2919;48.630;9.000;2023-05-10T05:10:39;11.30;99.90
5786;DHT22;2919;48.630;9.000;2023-05-10T05:13:04;11.40;99.90
5786;DHT22;2919;48.630;9.000;2023-05-10T05:15:30;11.40;99.90
5786;DHT22;2919;48.630;9.000;2023-05-10T05:17:56;11.30;99.90
5786;DHT22;2919;48.630;9.000;2023-05-10T05:20:22;11.40;99.90
5786;DHT22;2919;48.630;9.000;2023-05-10T05:22:47;11.50;99.90
5786;DHT22;2919;48.630;9.000;2023-05-10T05:25:13;11.40;99.90
5786;DHT22;2919;48.630;9.000;2023-05-10T05:27:40;11.40;99.90
5786;DHT22;2919;48.630;9.000;2023-05-10T05:30:06;11.40;99.90
5786;DHT22;2919;48.630;9.000;2023-05-10T05:32:32;11.40;99.90
5786;DHT22;2919;48.630;9.000;2023-05-10T05:34:57;11.40;99.90
5786;DHT22;2919;48.630;9.000;2023-05-10T05:37:23;11.40;99.90
5786;DHT22;2919;48.630;9.000;2023-05-10T05:39:50;11.40;99.90
5786;DHT22;2919;48.630;9.000;2023-05-10T05:42:15;11.40;99.90
5786;DHT22;2919;48.630;9.000;2023-05-10T05:44:43;11.50;99.90
5786;DHT22;2919;48.630;9.000;2023-05-10T05:47:08;11.50;99.90
5786;DHT22;2919;48.630;9.000;2023-05-10T05:49:34;11.60;99.90
5786;DHT22;2919;48.630;9.000;2023-05-10T05:52:01;11.60;99.90
5786;DHT22;2919;48.630;9.000;2023-05-10T05:54:27;11.70;99.90
5786;DHT22;2919;48.630;9.000;2023-05-10T05:56:57;11.70;99.90
5786;DHT22;2919;48.630;9.000;2023-05-10T05:59:23;11.70;99.90
5786;DHT22;2919;48.630;9.000;2023-05-10T06:01:48;11.70;99.90
5786;DHT22;2919;48.630;9.000;2023-05-10T06:04:14;11.70;99.90
5786;DHT22;2919;48.630;9.000;2023-05-10T06:06:40;11.70;99.90
5786;DHT22;2919;48.630;9.000;2023-05-10T06:09:05;11.70;99.90
5786;DHT22;2919;48.630;9.000;2023-05-10T06:11:31;11.80;99.90
5786;DHT22;2919;48.630;9.000;2023-05-10T06:14:00;11.80;99.90
5786;DHT22;2919;48.630;9.000;2023-05-10T06:16:25;11.80;99.90
5786;DHT22;2919;48.630;9.000;2023-05-10T06:18:51;11.80;99.90
5786;DHT22;2919;48.630;9.000;2023-05-10T06:21:17;11.80;99.90
5786;DHT22;2919;48.630;9.000;2023-05-10T06:23:42;11.90;99.90
5786;DHT22;2919;48.630;9.000;2023-05-10T06:26:09;11.90;99.90
5786;DHT22;2919;48.630;9.000;2023-05-10T06:28:35;12.00;99.90
5786;DHT22;2919;48.630;9.000;2023-05-10T06:31:00;12.00;99.90
5786;DHT22;2919;48.630;9.000;2023-05-10T06:33:26;12.00;99.90
5786;DHT22;2919;48.630;9.000;2023-05-10T06:35:52;12.10;99.90
5786;DHT22;2919;48.630;9.000;2023-05-10T06:38:18;12.10;99.90
5786;DHT22;2919;48.630;9.000;2023-05-10T06:40:43;12.20;99.90
5786;DHT22;2919;48.630;9.000;2023-05-10T06:43:10;12.30;99.90
5786;DHT22;2919;48.630;9.000;2023-05-10T06:45:36;12.30;99.90
5786;DHT22;2919;48.630;9.000;2023-05-10T06:48:01;12.40;99.90
5786;DHT22;2919;48.630;9.000;2023-05-10T06:50:27;12.40;99.90
5786;DHT22;2919;48.630;9.000;2023-05-10T06:52:53;12.50;99.90
5786;DHT22;2919;48.630;9.000;2023-05-10T06:55:18;12.60;99.90
5786;DHT22;2919;48.630;9.000;2023-05-10T06:57:44;12.60;99.90
5786;DHT22;2919;48.630;9.000;2023-05-10T07:00:10;12.50;99.90
5786;DHT22;2919;48.630;9.000;2023-05-10T07:02:35;12.60;99.90
5786;DHT22;2919;48.630;9.000;2023-05-10T07:05:01;12.60;99.90
5786;DHT22;2919;48.630;9.000;2023-05-10T07:07:27;12.60;99.90
5786;DHT22;2919;48.630;9.000;2023-05-10T07:09:53;12.50;99.90
5786;DHT22;2919;48.630;9.000;2023-05-10T07:12:19;12.60;99.90
5786;DHT22;2919;48.630;9.000;2023-05-10T07:14:44;12.60;99.90
5786;DHT22;2919;48.630;9.000;2023-05-10T07:17:11;12.60;99.90
5786;DHT22;2919;48.630;9.000;2023-05-10T07:19:36;12.70;99.90
5786;DHT22;2919;48.630;9.000;2023-05-10T07:22:02;12.70;99.90
5786;DHT22;2919;48.630;9.000;2023-05-10T07:24:28;12.70;99.90
5786;DHT22;2919;48.630;9.000;2023-05-10T07:26:53;12.70;99.90
5786;DHT22;2919;48.630;9.000;2023-05-10T07:29:19;12.60;99.90
5786;DHT22;2919;48.630;9.000;2023-05-10T07:31:44;12.70;99.90
5786;DHT22;2919;48.630;9.000;2023-05-10T07:34:10;12.70;99.90
5786;DHT22;2919;48.630;9.000;2023-05-10T07:36:36;12.70;99.90
5786;DHT22;2919;48.630;9.000;2023-05-10T07:39:01;12.60;99.90
5786;DHT22;2919;48.630;9.000;2023-05-10T07:41:28;12.70;99.90
5786;DHT22;2919;48.630;9.000;2023-05-10T07:43:53;12.70;99.90
5786;DHT22;2919;48.630;9.000;2023-05-10T07:46:19;12.80;99.90
5786;DHT22;2919;48.630;9.000;2023-05-10T07:48:45;12.80;99.90
5786;DHT22;2919;48.630;9.000;2023-05-10T07:51:11;12.80;99.90
5786;DHT22;2919;48.630;9.000;2023-05-10T07:53:37;12.80;99.90
5786;DHT22;2919;48.630;9.000;2023-05-10T07:56:26;12.80;99.90
5786;DHT22;2919;48.630;9.000;2023-05-10T07:58:58;12.90;99.90
5786;DHT22;2919;48.630;9.000;2023-05-10T08:01:24;13.00;99.90
5786;DHT22;2919;48.630;9.000;2023-05-10T08:03:50;13.10;99.90
5786;DHT22;2919;48.630;9.000;2023-05-10T08:06:17;13.20;99.90
5786;DHT22;2919;48.630;9.000;2023-05-10T08:08:43;13.20;99.90
5786;DHT22;2919;48.630;9.000;2023-05-10T08:11:10;13.30;99.90
5786;DHT22;2919;48.630;9.000;2023-05-10T08:13:36;13.30;99.90
5786;DHT22;2919;48.630;9.000;2023-05-10T08:16:02;13.30;99.90
5786;DHT22;2919;48.630;9.000;2023-05-10T08:18:27;13.40;99.90
5786;DHT22;2919;48.630;9.000;2023-05-10T08:20:53;13.60;99.90
5786;DHT22;2919;48.630;9.000;2023-05-10T08:23:19;13.60;99.90
5786;DHT22;2919;48.630;9.000;2023-05-10T08:25:44;13.80;99.90
5786;DHT22;2919;48.630;9.000;2023-05-10T08:28:10;13.90;99.90
5786;DHT22;2919;48.630;9.000;2023-05-10T08:30:36;13.90;99.90
5786;DHT22;2919;48.630;9.000;2023-05-10T08:33:01;13.80;99.90
5786;DHT22;2919;48.630;9.000;2023-05-10T08:35:27;13.90;99.90
5786;DHT22;2919;48.630;9.000;2023-05-10T08:37:52;14.00;99.90
5786;DHT22;2919;48.630;9.000;2023-05-10T08:40:19;14.00;99.90
5786;DHT22;2919;48.630;9.000;2023-05-10T08:43:02;13.90;99.90
5786;DHT22;2919;48.630;9.000;2023-05-10T08:45:32;14.10;99.90
5786;DHT22;2919;48.630;9.000;2023-05-10T08:48:01;14.10;99.90
5786;DHT22;2919;48.630;9.000;2023-05-10T08:50:27;14.20;99.90
5786;DHT22;2919;48.630;9.000;2023-05-10T08:52:55;14.30;99.90
5786;DHT22;2919;48.630;9.000;2023-05-10T08:55:23;14.40;99.90
5786;DHT22;2919;48.630;9.000;2023-05-10T08:57:49;14.40;99.90
5786;DHT22;2919;48.630;9.000;2023-05-10T09:00:16;14.60;99.90
5786;DHT22;2919;48.630;9.000;2023-05-10T09:02:43;14.60;99.90
5786;DHT22;2919;48.630;9.000;2023-05-10T09:05:09;14.60;99.90
5786;DHT22;2919;48.630;9.000;2023-05-10T09:07:35;14.60;99.90
5786;DHT22;2919;48.630;9.000;2023-05-10T09:10:02;14.50;99.90
5786;DHT22;2919;48.630;9.000;2023-05-10T09:12:28;14.50;99.90
5786;DHT22;2919;48.630;9.000;2023-05-10T09:14:54;14.40;99.90
5786;DHT22;2919;48.630;9.000;2023-05-10T09:17:22;14.30;99.90
5786;DHT22;2919;48.630;9.000;2023-05-10T09:19:48;14.30;99.90
5786;DHT22;2919;48.630;9.000;2023-05-10T09:22:14;14.40;99.90
5786;DHT22;2919;48.630;9.000;2023-05-10T09:24:42;14.50;99.90
5786;DHT22;2919;48.630;9.000;2023-05-10T09:27:10;14.60;99.90
5786;DHT22;2919;48.630;9.000;2023-05-10T09:29:42;14.80;99.90
5786;DHT22;2919;48.630;9.000;2023-05-10T09:32:08;14.80;99.90
5786;DHT22;2919;48.630;9.000;2023-05-10T09:34:34;14.80;99.90
5786;DHT22;2919;48.630;9.000;2023-05-10T09:37:05;15.00;99.90
5786;DHT22;2919;48.630;9.000;2023-05-10T09:39:35;15.20;99.90
5786;DHT22;2919;48.630;9.000;2023-05-10T09:42:03;15.20;99.90
5786;DHT22;2919;48.630;9.000;2023-05-10T09:44:29;15.20;99.90
5786;DHT22;2919;48.630;9.000;2023-05-10T09:46:55;15.10;99.90
5786;DHT22;2919;48.630;9.000;2023-05-10T09:49:21;15.10;99.90
5786;DHT22;2919;48.630;9.000;2023-05-10T09:51:47;15.00;99.90
5786;DHT22;2919;48.630;9.000;2023-05-10T09:54:22;14.90;99.90
5786;DHT22;2919;48.630;9.000;2023-05-10T09:56:49;14.90;99.90
5786;DHT22;2919;48.630;9.000;2023-05-10T09:59:14;14.90;99.90
5786;DHT22;2919;48.630;9.000;2023-05-10T10:01:40;15.00;99.90
5786;DHT22;2919;48.630;9.000;2023-05-10T10:04:08;15.00;99.90
5786;DHT22;2919;48.630;9.000;2023-05-10T10:06:37;15.10;99.90
5786;DHT22;2919;48.630;9.000;2023-05-10T10:09:04;15.10;99.90
5786;DHT22;2919;48.630;9.000;2023-05-10T10:11:30;15.20;99.90
5786;DHT22;2919;48.630;9.000;2023-05-10T10:13:56;15.30;99.90
5786;DHT22;2919;48.630;9.000;2023-05-10T10:16:21;15.50;99.90
5786;DHT22;2919;48.630;9.000;2023-05-10T10:18:48;15.90;99.90
5786;DHT22;2919;48.630;9.000;2023-05-10T10:21:15;16.20;99.90
5786;DHT22;2919;48.630;9.000;2023-05-10T10:23:40;16.50;99.90
5786;DHT22;2919;48.630;9.000;2023-05-10T10:26:06;16.70;99.90
5786;DHT22;2919;48.630;9.000;2023-05-10T10:29:07;16.60;99.90
5786;DHT22;2919;48.630;9.000;2023-05-10T10:31:40;16.80;99.90
5786;DHT22;2919;48.630;9.000;2023-05-10T10:34:09;16.70;99.90
5786;DHT22;2919;48.630;9.000;2023-05-10T10:36:47;16.60;99.90
5786;DHT22;2919;48.630;9.000;2023-05-10T10:39:14;16.30;99.90
5786;DHT22;2919;48.630;9.000;2023-05-10T10:42:00;16.10;99.90
5786;DHT22;2919;48.630;9.000;2023-05-10T10:49:26;14.30;99.90
5786;DHT22;2919;48.630;9.000;2023-05-10T10:57:33;12.50;99.90
5786;DHT22;2919;48.630;9.000;2023-05-10T11:03:03;12.40;99.90
5786;DHT22;2919;48.630;9.000;2023-05-10T11:16:22;12.40;99.90
5786;DHT22;2919;48.630;9.000;2023-05-10T11:19:01;12.50;99.90
5786;DHT22;2919;48.630;9.000;2023-05-10T11:21:28;12.60;99.90
5786;DHT22;2919;48.630;9.000;2023-05-10T11:23:55;12.70;99.90
5786;DHT22;2919;48.630;9.000;2023-05-10T11:26:29;13.00;99.90
5786;DHT22;2919;48.630;9.000;2023-05-10T11:28:55;13.30;99.90
5786;DHT22;2919;48.630;9.000;2023-05-10T11:31:21;13.40;99.90
5786;DHT22;2919;48.630;9.000;2023-05-10T11:33:55;13.60;99.90
5786;DHT22;2919;48.630;9.000;2023-05-10T11:36:24;13.80;99.90
5786;DHT22;2919;48.630;9.000;2023-05-10T11:38:50;13.90;99.90
5786;DHT22;2919;48.630;9.000;2023-05-10T11:41:18;14.10;99.90
5786;DHT22;2919;48.630;9.000;2023-05-10T11:43:46;14.20;99.90
5786;DHT22;2919;48.630;9.000;2023-05-10T11:46:13;14.20;99.90
5786;DHT22;2919;48.630;9.000;2023-05-10T11:48:39;14.20;99.90
5786;DHT22;2919;48.630;9.000;2023-05-10T11:51:06;14.30;99.90
5786;DHT22;2919;48.630;9.000;2023-05-10T11:53:33;14.40;99.90
5786;DHT22;2919;48.630;9.000;2023-05-10T11:56:11;14.50;99.90
5786;DHT22;2919;48.630;9.000;2023-05-10T11:58:38;14.50;99.90
5786;DHT22;2919;48.630;9.000;2023-05-10T12:01:06;14.70;99.90
5786;DHT22;2919;48.630;9.000;2023-05-10T12:03:32;14.70;99.90
5786;DHT22;2919;48.630;9.000;2023-05-10T12:05:58;14.80;99.90
5786;DHT22;2919;48.630;9.000;2023-05-10T12:08:28;15.00;99.90
5786;DHT22;2919;48.630;9.000;2023-05-10T12:11:04;15.10;99.90
5786;DHT22;2919;48.630;9.000;2023-05-10T12:13:30;15.00;99.90
5786;DHT22;2919;48.630;9.000;2023-05-10T12:15:58;15.00;99.90
5786;DHT22;2919;48.630;9.000;2023-05-10T12:18:24;14.80;99.90
5786;DHT22;2919;48.630;9.000;2023-05-10T12:20:54;14.60;99.90
5786;DHT22;2919;48.630;9.000;2023-05-10T12:23:20;14.60;99.90
5786;DHT22;2919;48.630;9.000;2023-05-10T12:25:46;14.40;99.90
5786;DHT22;2919;48.630;9.000;2023-05-10T12:28:12;14.40;99.90
5786;DHT22;2919;48.630;9.000;2023-05-10T12:30:38;14.50;99.90
5786;DHT22;2919;48.630;9.000;2023-05-10T12:33:08;14.60;99.90
5786;DHT22;2919;48.630;9.000;2023-05-10T12:35:47;14.80;99.90
5786;DHT22;2919;48.630;9.000;2023-05-10T12:40:50;15.10;99.90
5786;DHT22;2919;48.630;9.000;2023-05-10T12:43:16;15.30;99.90
5786;DHT22;2919;48.630;9.000;2023-05-10T12:45:41;15.30;99.90
5786;DHT22;2919;48.630;9.000;2023-05-10T12:48:07;15.30;99.90
5786;DHT22;2919;48.630;9.000;2023-05-10T12:50:33;15.40;99.90
5786;DHT22;2919;48.630;9.000;2023-05-10T12:52:58;15.30;99.90
5786;DHT22;2919;48.630;9.000;2023-05-10T12:55:24;15.30;99.90
5786;DHT22;2919;48.630;9.000;2023-05-10T12:57:50;15.30;99.90
5786;DHT22;2919;48.630;9.000;2023-05-10T13:00:15;15.40;99.90
5786;DHT22;2919;48.630;9.000;2023-05-10T13:02:41;15.30;99.90
5786;DHT22;2919;48.630;9.000;2023-05-10T13:05:07;15.10;99.80
5786;DHT22;2919;48.630;9.000;2023-05-10T13:07:33;15.20;99.80
5786;DHT22;2919;48.630;9.000;2023-05-10T13:09:58;15.30;99.30
5786;DHT22;2919;48.630;9.000;2023-05-10T13:12:24;15.40;99.80
5786;DHT22;2919;48.630;9.000;2023-05-10T13:14:49;15.50;99.30
5786;DHT22;2919;48.630;9.000;2023-05-10T13:17:15;15.40;98.90
5786;DHT22;2919;48.630;9.000;2023-05-10T13:19:40;15.30;98.70
5786;DHT22;2919;48.630;9.000;2023-05-10T13:22:06;15.30;98.70
5786;DHT22;2919;48.630;9.000;2023-05-10T13:24:32;15.30;98.30
5786;DHT22;2919;48.630;9.000;2023-05-10T13:26:57;15.30;99.30
5786;DHT22;2919;48.630;9.000;2023-05-10T13:29:23;15.30;97.50
5786;DHT22;2919;48.630;9.000;2023-05-10T13:31:49;15.30;99.40
5786;DHT22;2919;48.630;9.000;2023-05-10T13:34:14;15.40;98.60
5786;DHT22;2919;48.630;9.000;2023-05-10T13:36:40;15.30;97.90
5786;DHT22;2919;48.630;9.000;2023-05-10T13:39:06;15.30;98.30
5786;DHT22;2919;48.630;9.000;2023-05-10T13:41:32;15.30;98.60
5786;DHT22;2919;48.630;9.000;2023-05-10T13:43:57;15.50;97.70
5786;DHT22;2919;48.630;9.000;2023-05-10T13:46:23;15.50;97.50
5786;DHT22;2919;48.630;9.000;2023-05-10T13:48:48;15.40;99.20
5786;DHT22;2919;48.630;9.000;2023-05-10T13:51:14;15.50;99.80
5786;DHT22;2919;48.630;9.000;2023-05-10T13:53:40;15.50;98.30
5786;DHT22;2919;48.630;9.000;2023-05-10T13:56:05;15.40;98.50
5786;DHT22;2919;48.630;9.000;2023-05-10T13:58:31;15.40;98.10
5786;DHT22;2919;48.630;9.000;2023-05-10T14:00:57;15.40;98.10
5786;DHT22;2919;48.630;9.000;2023-05-10T14:03:23;15.30;98.50
5786;DHT22;2919;48.630;9.000;2023-05-10T14:05:48;15.40;99.10
5786;DHT22;2919;48.630;9.000;2023-05-10T14:08:14;15.50;99.00
5786;DHT22;2919;48.630;9.000;2023-05-10T14:10:40;15.40;98.90
5786;DHT22;2919;48.630;9.000;2023-05-10T14:13:05;15.60;98.70
5786;DHT22;2919;48.630;9.000;2023-05-10T14:15:31;15.60;99.30
5786;DHT22;2919;48.630;9.000;2023-05-10T14:17:57;15.60;99.50
5786;DHT22;2919;48.630;9.000;2023-05-10T14:20:23;15.60;99.60
5786;DHT22;2919;48.630;9.000;2023-05-10T14:22:48;15.70;97.80
5786;DHT22;2919;48.630;9.000;2023-05-10T14:25:14;15.70;99.10
5786;DHT22;2919;48.630;9.000;2023-05-10T14:27:40;15.80;97.70
5786;DHT22;2919;48.630;9.000;2023-05-10T14:30:06;15.80;98.30
5786;DHT22;2919;48.630;9.000;2023-05-10T14:32:32;16.00;96.50
5786;DHT22;2919;48.630;9.000;2023-05-10T14:34:57;15.90;96.40
5786;DHT22;2919;48.630;9.000;2023-05-10T14:37:23;15.80;96.20
5786;DHT22;2919;48.630;9.000;2023-05-10T14:39:49;15.80;97.10
5786;DHT22;2919;48.630;9.000;2023-05-10T14:42:15;15.70;96.80
5786;DHT22;2919;48.630;9.000;2023-05-10T14:44:40;15.70;97.60
5786;DHT22;2919;48.630;9.000;2023-05-10T14:47:06;15.70;95.90
5786;DHT22;2919;48.630;9.000;2023-05-10T14:49:32;15.50;97.80
5786;DHT22;2919;48.630;9.000;2023-05-10T14:51:57;15.60;98.20
5786;DHT22;2919;48.630;9.000;2023-05-10T14:54:23;15.90;96.50
5786;DHT22;2919;48.630;9.000;2023-05-10T14:56:48;15.80;96.40
5786;DHT22;2919;48.630;9.000;2023-05-10T14:59:15;15.80;96.90
5786;DHT22;2919;48.630;9.000;2023-05-10T15:01:41;15.70;96.50
5786;DHT22;2919;48.630;9.000;2023-05-10T15:04:07;15.70;97.60
5786;DHT22;2919;48.630;9.000;2023-05-10T15:06:34;15.50;97.40
5786;DHT22;2919;48.630;9.000;2023-05-10T15:09:01;15.60;97.70
5786;DHT22;2919;48.630;9.000;2023-05-10T15:11:27;15.70;97.80
5786;DHT22;2919;48.630;9.000;2023-05-10T15:13:54;15.70;97.20
5786;DHT22;2919;48.630;9.000;2023-05-10T15:16:20;15.80;96.20
5786;DHT22;2919;48.630;9.000;2023-05-10T15:18:45;15.90;95.10
5786;DHT22;2919;48.630;9.000;2023-05-10T15:21:11;15.70;94.70
5786;DHT22;2919;48.630;9.000;2023-05-10T15:23:37;15.60;94.80
5786;DHT22;2919;48.630;9.000;2023-05-10T15:26:03;15.60;95.60
5786;DHT22;2919;48.630;9.000;2023-05-10T15:28:28;15.50;96.40
5786;DHT22;2919;48.630;9.000;2023-05-10T15:30:55;15.50;97.10
5786;DHT22;2919;48.630;9.000;2023-05-10T15:33:20;15.60;95.60
5786;DHT22;2919;48.630;9.000;2023-05-10T15:35:46;15.50;97.50
5786;DHT22;2919;48.630;9.000;2023-05-10T15:38:12;15.60;96.40
5786;DHT22;2919;48.630;9.000;2023-05-10T15:40:37;15.60;96.20
5786;DHT22;2919;48.630;9.000;2023-05-10T15:43:03;15.60;97.60
5786;DHT22;2919;48.630;9.000;2023-05-10T15:45:30;15.60;97.10
5786;DHT22;2919;48.630;9.000;2023-05-10T15:47:56;15.70;95.90
5786;DHT22;2919;48.630;9.000;2023-05-10T15:50:22;15.70;96.40
5786;DHT22;2919;48.630;9.000;2023-05-10T15:52:47;15.60;97.20
5786;DHT22;2919;48.630;9.000;2023-05-10T15:55:14;15.60;97.10
5786;DHT22;2919;48.630;9.000;2023-05-10T15:57:41;15.70;97.40
5786;DHT22;2919;48.630;9.000;2023-05-10T16:00:08;15.80;96.10
5786;DHT22;2919;48.630;9.000;2023-05-10T16:02:35;15.80;94.70
5786;DHT22;2919;48.630;9.000;2023-05-10T16:05:00;15.60;96.00
5786;DHT22;2919;48.630;9.000;2023-05-10T16:07:26;15.60;97.10
5786;DHT22;2919;48.630;9.000;2023-05-10T16:09:52;15.70;96.70
5786;DHT22;2919;48.630;9.000;2023-05-10T16:12:17;15.70;96.60
5786;DHT22;2919;48.630;9.000;2023-05-10T16:14:43;15.60;97.30
5786;DHT22;2919;48.630;9.000;2023-05-10T16:17:08;15.60;96.20
5786;DHT22;2919;48.630;9.000;2023-05-10T16:19:34;15.50;96.70
5786;DHT22;2919;48.630;9.000;2023-05-10T16:22:00;15.30;96.70
5786;DHT22;2919;48.630;9.000;2023-05-10T16:24:26;15.40;96.30
5786;DHT22;2919;48.630;9.000;2023-05-10T16:26:51;15.30;96.40
5786;DHT22;2919;48.630;9.000;2023-05-10T16:29:17;15.20;97.80
5786;DHT22;2919;48.630;9.000;2023-05-10T16:31:42;14.90;99.10
5786;DHT22;2919;48.630;9.000;2023-05-10T16:34:08;14.80;99.90
5786;DHT22;2919;48.630;9.000;2023-05-10T16:36:34;14.50;99.90
5786;DHT22;2919;48.630;9.000;2023-05-10T16:38:59;14.40;99.90
5786;DHT22;2919;48.630;9.000;2023-05-10T16:41:25;14.30;99.90
5786;DHT22;2919;48.630;9.000;2023-05-10T16:43:51;14.10;99.90
5786;DHT22;2919;48.630;9.000;2023-05-10T16:46:16;14.10;99.90